Time;durP1;ratioP1;P1;durP2;ratioP2;P2;SDS_P1;SDS_P2;PMS_P1;PMS_P2;Temp;Humidity;BMP_temperature;BMP_pressure;BME280_temperature;BME280_humidity;BME280_pressure;Samples;Min_cycle;Max_cycle;Signal;HPM_P1;HPM_P2
2021/07/23 00:00:52;;;;;;;0.10;0.10;;;;;;;21.38;40.83;99245.22;5011612;28;20093;-55
2021/07/23 00:03:19;;;;;;;0.10;0.10;;;;;;;21.45;40.61;99241.75;5029333;28;20520;-53
2021/07/23 00:05:45;;;;;;;0.15;0.15;;;;;;;21.46;40.53;99242.59;5029067;28;20053;-54
2021/07/23 00:08:11;;;;;;;0.17;0.17;;;;;;;21.49;40.79;99248.38;5029202;28;20530;-56
2021/07/23 00:10:37;;;;;;;0.10;0.10;;;;;;;21.54;40.74;99248.69;5028905;28;20053;-57
2021/07/23 00:13:03;;;;;;;0.10;0.10;;;;;;;21.54;40.64;99243.38;5029408;28;20060;-54
2021/07/23 00:15:29;;;;;;;0.10;0.10;;;;;;;21.53;40.58;99244.38;5028915;28;20045;-53
2021/07/23 00:17:55;;;;;;;0.10;0.10;;;;;;;21.53;40.75;99249.69;5029268;28;20076;-55
2021/07/23 00:20:21;;;;;;;0.20;0.20;;;;;;;21.44;41.01;99250.69;5029005;28;20530;-55
2021/07/23 00:22:47;;;;;;;0.10;0.10;;;;;;;21.47;40.87;99250.38;5028795;28;20108;-57
2021/07/23 00:25:13;;;;;;;0.80;0.80;;;;;;;21.49;40.83;99253.69;5028977;28;20057;-56
2021/07/23 00:27:39;;;;;;;0.10;0.10;;;;;;;21.51;40.73;99250.84;5011265;28;20071;-55
2021/07/23 00:30:06;;;;;;;0.10;0.10;;;;;;;21.56;40.72;99248.53;5029068;28;20057;-53
2021/07/23 00:32:34;;;;;;;0.10;0.10;;;;;;;21.48;41.08;99249.38;5027367;28;20105;-53
2021/07/23 00:35:05;;;;;;;0.10;0.10;;;;;;;21.46;41.12;99245.25;5028956;28;20056;-55
2021/07/23 00:37:32;;;;;;;0.20;0.20;;;;;;;21.42;41.17;99242.09;5011212;28;20041;-58
2021/07/23 00:39:58;;;;;;;0.22;0.22;;;;;;;21.37;41.34;99248.91;5011299;28;20072;-58
2021/07/23 00:42:41;;;;;;;0.10;0.10;;;;;;;21.33;41.47;99232.47;5011206;28;20099;-56
2021/07/23 00:45:08;;;;;;;0.20;0.20;;;;;;;21.29;41.58;99241.75;5012676;28;20057;-55
2021/07/23 00:47:39;;;;;;;0.10;0.10;;;;;;;21.23;41.86;99245.94;5032309;28;20133;-54
2021/07/23 00:50:05;;;;;;;0.10;0.10;;;;;;;21.19;42.06;99241.94;5032506;28;20080;-53
2021/07/23 00:52:32;;;;;;;0.60;0.60;;;;;;;21.17;41.95;99240.44;5014595;28;20057;-54
2021/07/23 00:54:59;;;;;;;0.20;0.20;;;;;;;21.19;41.61;99235.78;4998324;28;20091;-56
2021/07/23 00:57:25;;;;;;;0.40;0.40;;;;;;;21.15;42.12;99235.28;5014695;28;20049;-56
2021/07/23 00:59:52;;;;;;;0.10;0.10;;;;;;;21.10;42.25;99234.16;5014694;28;20136;-56
2021/07/23 01:02:18;;;;;;;0.10;0.10;;;;;;;21.05;42.41;99231.94;5032126;28;20132;-54
2021/07/23 01:04:45;;;;;;;0.10;0.10;;;;;;;21.04;42.29;99227.63;5031996;28;20103;-57
2021/07/23 01:07:15;;;;;;;0.10;0.10;;;;;;;20.99;42.53;99231.78;5014518;28;20108;-56
2021/07/23 01:09:41;;;;;;;0.10;0.10;;;;;;;21.07;42.34;99232.59;5014219;28;20192;-56
2021/07/23 01:12:15;;;;;;;0.10;0.10;;;;;;;21.05;42.38;99229.28;5015563;28;20053;-54
2021/07/23 01:14:42;;;;;;;0.10;0.10;;;;;;;21.09;42.43;99237.75;4998131;28;20060;-55
2021/07/23 01:17:09;;;;;;;0.10;0.10;;;;;;;21.08;42.41;99228.97;5014090;28;20049;-57
2021/07/23 01:20:03;;;;;;;0.10;0.10;;;;;;;21.06;42.42;99230.13;5014109;28;20053;-55
2021/07/23 01:22:30;;;;;;;0.68;0.68;;;;;;;20.95;42.66;99222.47;4988382;28;20470;-56
2021/07/23 01:24:57;;;;;;;0.10;0.10;;;;;;;20.99;42.85;99218.50;5014136;28;20059;-55
2021/07/23 01:27:24;;;;;;;0.10;0.10;;;;;;;21.01;42.50;99220.00;4997565;28;20495;-56
2021/07/23 01:30:08;;;;;;;0.10;0.10;;;;;;;20.91;42.64;99199.94;5015298;28;20470;-56
2021/07/23 01:32:39;;;;;;;0.10;0.10;;;;;;;21.00;42.65;99204.25;5031097;28;20145;-56
2021/07/23 01:35:07;;;;;;;0.10;0.10;;;;;;;20.95;42.94;99210.03;5031614;28;20056;-57
2021/07/23 01:37:34;;;;;;;0.10;0.10;;;;;;;20.95;43.02;99203.91;5013669;28;20107;-56
2021/07/23 01:40:02;;;;;;;0.20;0.20;;;;;;;20.98;42.91;99209.72;5013902;28;20041;-56
2021/07/23 01:42:30;;;;;;;0.10;0.10;;;;;;;21.02;42.79;99202.25;5013748;28;20052;-56
2021/07/23 01:44:56;;;;;;;0.40;0.40;;;;;;;21.01;42.78;99200.56;5031033;28;20057;-53
2021/07/23 01:47:23;;;;;;;0.10;0.10;;;;;;;21.06;42.76;99200.94;5013581;28;20077;-55
2021/07/23 01:49:49;;;;;;;0.57;0.47;;;;;;;21.18;42.15;99173.91;5013272;28;20041;-53
2021/07/23 01:52:19;;;;;;;0.20;0.20;;;;;;;21.59;41.43;99206.53;5031170;28;20115;-56
2021/07/23 01:54:48;;;;;;;0.43;0.43;;;;;;;21.93;40.82;99202.78;5029510;28;20046;-55
2021/07/23 01:57:28;;;;;;;0.40;0.40;;;;;;;22.10;40.26;99194.56;5013313;28;20560;-54
2021/07/23 01:59:57;;;;;;;0.20;0.20;;;;;;;22.27;39.75;99185.50;5013561;28;20088;-56
2021/07/23 02:02:23;;;;;;;0.40;0.40;;;;;;;22.48;39.26;99192.84;5013235;28;20049;-55
2021/07/23 02:04:49;;;;;;;0.20;0.20;;;;;;;22.63;38.79;99180.47;5030742;28;20049;-56
2021/07/23 02:07:15;;;;;;;0.10;0.10;;;;;;;22.80;38.51;99176.69;5013081;28;20088;-56
2021/07/23 02:09:41;;;;;;;0.35;0.35;;;;;;;23.04;37.96;99174.81;5030701;28;20057;-56
2021/07/23 02:12:10;;;;;;;0.10;0.10;;;;;;;23.08;37.81;99178.78;5013242;28;20057;-57
2021/07/23 02:15:08;;;;;;;0.20;0.20;;;;;;;22.92;38.21;99168.28;5012101;28;20053;-55
2021/07/23 02:17:35;;;;;;;0.20;0.20;;;;;;;23.24;37.57;99175.97;5012871;28;20057;-57
2021/07/23 02:20:05;;;;;;;0.20;0.20;;;;;;;23.54;37.04;99175.03;5013407;28;20049;-58
2021/07/23 02:22:38;;;;;;;0.20;0.20;;;;;;;23.71;36.54;99176.50;5013043;28;20045;-58
2021/07/23 02:25:08;;;;;;;0.20;0.20;;;;;;;23.98;35.99;99185.69;5030887;28;20045;-56
2021/07/23 02:27:34;;;;;;;0.20;0.20;;;;;;;24.14;35.66;99182.00;5029228;28;20500;-55
2021/07/23 02:30:02;;;;;;;0.10;0.10;;;;;;;24.22;35.55;99173.88;5029466;28;20045;-57
2021/07/23 02:32:35;;;;;;;0.20;0.20;;;;;;;24.32;35.32;99177.91;5030467;28;20061;-57
2021/07/23 02:35:02;;;;;;;0.20;0.20;;;;;;;24.53;35.01;99177.09;5029242;28;20053;-56
2021/07/23 02:37:38;;;;;;;0.45;0.45;;;;;;;24.81;34.29;99163.78;4997674;28;20045;-55
2021/07/23 02:40:06;;;;;;;0.22;0.22;;;;;;;25.14;33.77;99177.47;5030429;28;20050;-56
2021/07/23 02:42:32;;;;;;;0.20;0.20;;;;;;;25.16;33.75;99176.25;4996454;28;20053;-57
2021/07/23 02:45:00;;;;;;;0.25;0.25;;;;;;;25.20;33.55;99157.97;5030093;28;20056;-54
2021/07/23 02:47:27;;;;;;;0.40;0.40;;;;;;;25.32;33.38;99170.63;5012367;28;20061;-57
2021/07/23 02:49:53;;;;;;;0.22;0.22;;;;;;;25.60;32.91;99165.28;5012369;28;20537;-56
2021/07/23 02:52:21;;;;;;;0.20;0.20;;;;;;;25.83;32.60;99163.13;5012459;28;20115;-54
2021/07/23 02:54:47;;;;;;;0.20;0.20;;;;;;;25.79;32.41;99153.84;5012384;28;20041;-56
2021/07/23 02:57:15;;;;;;;0.30;0.30;;;;;;;26.11;32.18;99172.94;5028780;28;20159;-55
2021/07/23 02:59:44;;;;;;;0.37;0.37;;;;;;;26.37;31.36;99155.13;5012276;28;20135;-53
2021/07/23 03:02:13;;;;;;;0.28;0.28;;;;;;;26.61;31.24;99175.16;5029933;28;20416;-56
2021/07/23 03:04:40;;;;;;;0.20;0.20;;;;;;;26.69;30.98;99166.94;5012102;28;20107;-57
2021/07/23 03:07:05;;;;;;;0.20;0.20;;;;;;;26.84;30.84;99148.00;5011670;28;20065;-55
2021/07/23 03:09:33;;;;;;;0.20;0.20;;;;;;;26.95;31.02;99163.47;5028616;28;20039;-55
2021/07/23 03:12:01;;;;;;;0.20;0.20;;;;;;;27.16;30.36;99162.47;5011817;28;20046;-54
2021/07/23 03:14:32;;;;;;;0.40;0.40;;;;;;;27.02;30.68;99139.38;5012157;28;20053;-55
2021/07/23 03:17:08;;;;;;;0.20;0.20;;;;;;;27.28;30.63;99156.25;5028275;28;20041;-57
2021/07/23 03:19:35;;;;;;;0.40;0.40;;;;;;;27.49;29.92;99157.09;5029773;28;20099;-57
2021/07/23 03:22:02;;;;;;;0.28;0.28;;;;;;;27.77;29.82;99150.41;5029276;28;20329;-55
2021/07/23 03:24:28;;;;;;;0.20;0.20;;;;;;;27.85;29.97;99146.63;5012268;28;20048;-56
2021/07/23 03:26:57;;;;;;;0.20;0.20;;;;;;;27.66;30.29;99147.53;5028096;28;20057;-54
2021/07/23 03:29:24;;;;;;;0.20;0.20;;;;;;;27.71;29.77;99143.19;5011869;28;20124;-57
2021/07/23 03:31:50;;;;;;;0.20;0.20;;;;;;;27.77;29.88;99134.28;5008203;28;20633;-55
2021/07/23 03:34:20;;;;;;;0.20;0.20;;;;;;;27.96;29.67;99151.34;5008664;28;20058;-55
2021/07/23 03:36:57;;;;;;;0.32;0.32;;;;;;;28.10;29.04;99139.56;4993483;28;20523;-56
2021/07/23 03:39:40;;;;;;;0.20;0.20;;;;;;;28.37;29.13;99134.88;5008529;28;20053;-58
2021/07/23 03:42:08;;;;;;;0.30;0.30;;;;;;;28.40;28.97;99131.75;5008578;28;20089;-56
2021/07/23 03:44:39;;;;;;;0.20;0.20;;;;;;;28.47;29.07;99129.03;5008700;28;20073;-56
2021/07/23 03:47:07;;;;;;;0.20;0.20;;;;;;;28.54;28.78;99127.91;5008267;28;20406;-55
2021/07/23 03:49:34;;;;;;;0.20;0.20;;;;;;;28.63;29.05;99123.91;4992596;28;20054;-54
2021/07/23 03:52:00;;;;;;;0.25;0.25;;;;;;;28.81;28.54;99120.50;5008063;28;20487;-57
2021/07/23 03:54:30;;;;;;;0.20;0.20;;;;;;;28.92;28.38;99117.94;5008471;28;20056;-56
2021/07/23 03:56:56;;;;;;;0.20;0.20;;;;;;;28.94;28.53;99120.41;5008100;28;20507;-54
2021/07/23 03:59:22;;;;;;;0.20;0.20;;;;;;;28.85;28.54;99103.75;4991983;28;20054;-55
2021/07/23 04:02:02;;;;;;;0.20;0.20;;;;;;;29.11;28.31;99115.28;5007991;28;20049;-56
2021/07/23 04:04:28;;;;;;;0.20;0.20;;;;;;;29.13;28.28;99118.56;5008289;28;20038;-55
2021/07/23 04:06:59;;;;;;;0.20;0.20;;;;;;;29.44;28.04;99111.25;5009009;28;20083;-55
2021/07/23 04:09:26;;;;;;;0.20;0.20;;;;;;;29.56;27.58;99103.25;5008286;28;20046;-55
2021/07/23 04:11:53;;;;;;;0.20;0.20;;;;;;;29.59;27.61;99108.19;5008007;28;20050;-56
2021/07/23 04:14:23;;;;;;;0.20;0.20;;;;;;;29.59;28.06;99102.81;5008256;28;20038;-55
2021/07/23 04:16:51;;;;;;;0.63;0.63;;;;;;;29.67;27.75;99105.22;5008037;28;20145;-56
2021/07/23 04:19:18;;;;;;;0.20;0.20;;;;;;;29.52;27.91;99107.44;5008514;28;20193;-56
2021/07/23 04:21:54;;;;;;;0.20;0.20;;;;;;;29.46;27.75;99100.25;5011788;28;20046;-56
2021/07/23 04:24:39;;;;;;;0.20;0.20;;;;;;;29.54;27.79;99099.97;5013284;28;20049;-57
2021/07/23 04:27:05;;;;;;;0.38;0.38;;;;;;;29.56;27.64;99092.50;5011509;28;20601;-57
2021/07/23 04:29:32;;;;;;;0.30;0.30;;;;;;;29.74;27.31;99097.88;5028448;28;20057;-54
2021/07/23 04:31:58;;;;;;;0.20;0.20;;;;;;;29.79;27.19;99102.56;5027842;28;20072;-56
2021/07/23 04:34:25;;;;;;;0.20;0.20;;;;;;;29.74;27.41;99105.94;5011843;28;20054;-58
2021/07/23 04:37:05;;;;;;;0.20;0.20;;;;;;;29.92;27.16;99097.03;4996884;28;20058;-58
2021/07/23 04:39:50;;;;;;;0.20;0.20;;;;;;;29.64;27.57;99094.91;5012682;28;20140;-56
2021/07/23 04:42:16;;;;;;;0.20;0.20;;;;;;;29.87;27.25;99089.66;5011544;28;20434;-56
2021/07/23 04:44:43;;;;;;;0.50;0.50;;;;;;;30.09;27.12;99098.06;5012701;28;20045;-59
2021/07/23 04:47:09;;;;;;;0.20;0.20;;;;;;;30.04;27.16;99072.88;5011312;28;20057;-57
2021/07/23 04:49:41;;;;;;;0.22;0.22;;;;;;;30.09;27.11;99087.28;5011794;28;20061;-57
2021/07/23 04:52:16;;;;;;;0.20;0.20;;;;;;;30.02;27.05;99075.78;5011428;28;20041;-57
2021/07/23 04:55:21;;;;;;;0.20;0.20;;;;;;;30.08;26.85;99076.72;4990512;28;20140;-57
2021/07/23 04:57:59;;;;;;;0.60;0.60;;;;;;;30.47;26.34;99073.47;4990155;28;20050;-56
2021/07/23 05:00:25;;;;;;;0.50;0.50;;;;;;;30.52;26.34;99068.25;5002658;28;20080;-58
2021/07/23 05:02:52;;;;;;;0.22;0.22;;;;;;;30.80;26.07;99057.59;5012176;28;20100;-56
2021/07/23 05:05:19;;;;;;;0.20;0.20;;;;;;;30.84;26.00;99064.16;5012474;28;20110;-56
2021/07/23 05:07:45;;;;;;;0.10;0.10;;;;;;;30.16;26.59;99065.66;5027171;28;20053;-58
2021/07/23 05:10:12;;;;;;;0.13;0.13;;;;;;;29.24;27.92;99066.75;5011169;28;20065;-56
2021/07/23 05:12:39;;;;;;;0.10;0.10;;;;;;;28.48;28.92;99066.19;5012665;28;20140;-60
2021/07/23 05:15:07;;;;;;;0.10;0.10;;;;;;;27.78;30.07;99076.88;5010781;28;20591;-59
2021/07/23 05:17:36;;;;;;;0.03;0.03;;;;;;;27.51;30.43;99064.66;5012520;28;20053;-59
2021/07/23 05:20:05;;;;;;;0.10;0.10;;;;;;;27.40;30.93;99071.44;4994714;28;20116;-59
2021/07/23 05:22:31;;;;;;;0.10;0.10;;;;;;;27.24;31.14;99061.19;5012127;28;20061;-58
2021/07/23 05:24:57;;;;;;;0.10;0.10;;;;;;;26.99;31.71;99064.75;5011849;28;20048;-59
2021/07/23 05:27:23;;;;;;;0.10;0.10;;;;;;;26.69;32.25;99058.97;5010586;28;20435;-59
2021/07/23 05:29:49;;;;;;;0.10;0.10;;;;;;;26.48;32.28;99057.31;5011745;28;20038;-59
2021/07/23 05:32:15;;;;;;;0.00;0.00;;;;;;;26.37;32.88;99050.72;5010092;28;20096;-59
2021/07/23 05:34:41;;;;;;;0.10;0.10;;;;;;;26.37;32.98;99044.56;5010806;28;20046;-57
2021/07/23 05:37:07;;;;;;;0.10;0.10;;;;;;;26.48;32.53;99040.41;5011470;28;20061;-59
2021/07/23 05:39:33;;;;;;;0.10;0.10;;;;;;;26.57;32.07;99018.59;5011746;28;20081;-59
2021/07/23 05:42:02;;;;;;;0.10;0.10;;;;;;;27.05;31.72;99037.09;5026805;28;20048;-59
2021/07/23 05:44:32;;;;;;;0.20;0.20;;;;;;;27.45;31.21;99006.50;5010559;28;20133;-60
2021/07/23 05:47:01;;;;;;;0.13;0.13;;;;;;;27.69;30.32;99015.66;5011432;28;20050;-58
2021/07/23 05:49:27;;;;;;;0.10;0.10;;;;;;;27.91;30.31;99033.88;5011643;28;20046;-58
2021/07/23 05:51:54;;;;;;;0.32;0.32;;;;;;;28.21;30.02;99022.56;5011216;28;20054;-58
2021/07/23 05:54:20;;;;;;;0.20;0.20;;;;;;;28.25;29.96;99019.25;5011493;28;20046;-59
2021/07/23 05:56:47;;;;;;;0.20;0.20;;;;;;;28.17;29.98;99013.34;5011557;28;20042;-58
2021/07/23 05:59:13;;;;;;;0.20;0.20;;;;;;;28.23;29.91;99002.53;5011492;28;20054;-58
2021/07/23 06:01:39;;;;;;;0.10;0.10;;;;;;;28.33;29.51;99015.47;5011241;28;20049;-59
2021/07/23 06:04:05;;;;;;;0.10;0.10;;;;;;;28.27;29.49;99011.00;5011070;28;20068;-58
2021/07/23 06:06:32;;;;;;;0.10;0.10;;;;;;;28.41;29.53;98997.22;5011090;28;20081;-59
2021/07/23 06:08:59;;;;;;;0.10;0.10;;;;;;;28.82;28.68;98988.63;5010998;28;20068;-59
2021/07/23 06:11:26;;;;;;;0.10;0.10;;;;;;;28.19;29.77;98997.81;5011080;28;20046;-59
2021/07/23 06:13:52;;;;;;;0.10;0.10;;;;;;;27.84;30.61;98986.69;5010928;28;20054;-59
2021/07/23 06:16:18;;;;;;;0.10;0.10;;;;;;;27.80;30.40;98988.97;5010036;28;20045;-58
2021/07/23 06:18:44;;;;;;;0.10;0.10;;;;;;;27.46;30.85;98986.66;5011191;28;20046;-59
2021/07/23 06:21:10;;;;;;;0.10;0.10;;;;;;;27.58;30.34;98979.63;5010853;28;20574;-59
2021/07/23 06:23:36;;;;;;;0.10;0.10;;;;;;;27.81;30.35;99001.31;5011048;28;20074;-59
2021/07/23 06:26:03;;;;;;;0.10;0.10;;;;;;;27.83;30.34;98987.72;5010689;28;20050;-58
2021/07/23 06:28:29;;;;;;;0.10;0.10;;;;;;;28.28;29.94;99001.88;5010739;28;20049;-58
2021/07/23 06:31:02;;;;;;;0.10;0.10;;;;;;;28.43;29.79;98994.34;5010576;28;20574;-59
2021/07/23 06:33:28;;;;;;;0.10;0.10;;;;;;;28.49;29.46;98996.13;5009270;28;20057;-59
2021/07/23 06:35:54;;;;;;;0.60;0.60;;;;;;;34.32;21.81;98981.72;5010593;28;20050;-59
2021/07/23 06:38:20;;;;;;;0.80;0.80;;;;;;;38.44;16.94;98970.28;5010655;28;20053;-59
2021/07/23 06:40:45;;;;;;;0.82;0.82;;;;;;;40.96;14.40;98971.38;5010735;28;20433;-58
2021/07/23 06:43:12;;;;;;;0.70;0.70;;;;;;;42.39;13.01;98967.88;5009576;28;20050;-60
2021/07/23 06:45:39;;;;;;;0.10;0.10;;;;;;;38.53;15.85;98969.34;5010707;28;20057;-59
2021/07/23 06:48:05;;;;;;;0.35;0.35;;;;;;;34.30;20.08;98970.31;5010214;28;20058;-58
2021/07/23 06:50:31;;;;;;;0.10;0.10;;;;;;;31.74;23.64;98980.84;5010656;28;20061;-58
2021/07/23 06:52:58;;;;;;;0.50;0.50;;;;;;;34.59;20.49;98974.31;5010293;28;20073;-58
2021/07/23 06:55:24;;;;;;;0.40;0.40;;;;;;;38.62;16.10;98955.06;4993052;28;20104;-59
2021/07/23 06:57:50;;;;;;;0.10;0.10;;;;;;;38.97;15.50;98957.47;5010499;28;20049;-58
2021/07/23 07:00:17;;;;;;;0.20;0.20;;;;;;;35.73;18.82;98960.78;5010509;28;20064;-58
2021/07/23 07:02:43;;;;;;;0.10;0.10;;;;;;;34.21;20.85;98967.25;5010297;28;20427;-58
2021/07/23 07:05:09;;;;;;;0.10;0.10;;;;;;;33.12;22.08;98974.72;5010124;28;20436;-59
2021/07/23 07:07:35;;;;;;;0.10;0.10;;;;;;;31.88;24.23;98974.09;5010196;28;20511;-58
2021/07/23 07:10:02;;;;;;;0.10;0.10;;;;;;;30.79;25.42;98958.88;5008817;28;20046;-58
2021/07/23 07:12:28;;;;;;;0.10;0.10;;;;;;;30.12;26.24;98957.56;5010109;28;20049;-58
2021/07/23 07:14:54;;;;;;;0.10;0.10;;;;;;;29.17;27.67;98947.69;5009990;28;20145;-58
2021/07/23 07:17:20;;;;;;;0.10;0.10;;;;;;;28.54;28.93;98947.94;5010128;28;20098;-59
2021/07/23 07:19:47;;;;;;;0.20;0.20;;;;;;;28.32;29.65;98954.75;5010119;28;20054;-59
2021/07/23 07:22:13;;;;;;;0.10;0.10;;;;;;;28.70;28.89;98952.75;5009711;28;20041;-59
2021/07/23 07:24:38;;;;;;;0.10;0.10;;;;;;;28.73;29.06;98954.19;5010029;28;20108;-59
2021/07/23 07:27:04;;;;;;;0.10;0.10;;;;;;;28.93;28.69;98946.72;5008345;28;20050;-59
2021/07/23 07:29:31;;;;;;;0.10;0.10;;;;;;;29.28;28.23;98928.13;5009950;28;20547;-61
2021/07/23 07:32:16;;;;;;;0.10;0.10;;;;;;;29.03;28.72;98933.56;5008478;28;20050;-59
2021/07/23 07:35:03;;;;;;;0.10;0.10;;;;;;;29.03;28.76;98927.38;5009779;28;20046;-59
2021/07/23 07:37:49;;;;;;;0.10;0.10;;;;;;;28.88;28.47;98928.59;5009661;28;20053;-60
2021/07/23 07:40:34;;;;;;;0.10;0.10;;;;;;;29.04;28.52;98912.88;5009868;28;20065;-58
2021/07/23 07:43:20;;;;;;;0.10;0.10;;;;;;;28.85;28.88;98934.41;5009870;28;20119;-58
2021/07/23 07:46:06;;;;;;;0.15;0.15;;;;;;;29.16;28.47;98925.34;5009656;28;20061;-59
2021/07/23 07:48:52;;;;;;;0.10;0.10;;;;;;;29.78;27.43;98921.41;5009679;28;20098;-59
2021/07/23 07:51:38;;;;;;;0.10;0.10;;;;;;;30.11;27.23;98922.78;5009666;28;20061;-59
2021/07/23 07:54:24;;;;;;;0.10;0.10;;;;;;;29.81;27.11;98915.53;5011659;28;20402;-58
2021/07/23 07:57:09;;;;;;;0.10;0.10;;;;;;;29.83;27.59;98923.44;5026126;28;20570;-59
2021/07/23 07:59:57;;;;;;;0.10;0.10;;;;;;;29.53;28.08;98920.75;5013402;28;20056;-58
2021/07/23 08:02:43;;;;;;;0.10;0.10;;;;;;;29.15;28.50;98901.38;5012462;28;20053;-59
2021/07/23 08:05:29;;;;;;;0.10;0.10;;;;;;;28.67;28.95;98912.91;5013703;28;20117;-59
2021/07/23 08:08:15;;;;;;;0.10;0.10;;;;;;;28.70;29.15;98911.63;5013319;28;20057;-59
2021/07/23 08:11:00;;;;;;;0.10;0.10;;;;;;;29.05;28.52;98901.09;5026255;28;20046;-59
2021/07/23 08:13:46;;;;;;;0.10;0.10;;;;;;;28.98;28.86;98892.28;5013297;28;20053;-58
2021/07/23 08:16:32;;;;;;;0.10;0.10;;;;;;;29.25;28.17;98897.16;5013491;28;20080;-60
2021/07/23 08:19:20;;;;;;;0.17;0.17;;;;;;;29.39;28.19;98881.63;5012125;28;20062;-58
2021/07/23 08:22:07;;;;;;;0.10;0.10;;;;;;;29.26;28.68;98900.63;5011903;28;20054;-58
2021/07/23 08:24:54;;;;;;;0.22;0.22;;;;;;;29.07;29.07;98896.31;5013278;28;20053;-61
2021/07/23 08:27:40;;;;;;;0.10;0.10;;;;;;;28.77;29.25;98889.00;5012973;28;20065;-58
2021/07/23 08:30:26;;;;;;;0.10;0.10;;;;;;;29.14;29.30;98889.81;5013016;28;20061;-59
2021/07/23 08:33:12;;;;;;;0.10;0.10;;;;;;;29.17;28.93;98889.34;5011525;28;20046;-59
2021/07/23 08:35:58;;;;;;;0.10;0.10;;;;;;;28.83;30.20;98885.44;5012629;28;20045;-59
2021/07/23 08:38:44;;;;;;;0.10;0.10;;;;;;;28.26;30.41;98883.97;5012990;28;20065;-59
2021/07/23 08:41:29;;;;;;;0.10;0.10;;;;;;;28.12;30.54;98890.50;5012008;28;20050;-59
2021/07/23 08:44:16;;;;;;;0.00;0.00;;;;;;;28.33;30.24;98878.53;5012678;28;20060;-59
2021/07/23 08:47:03;;;;;;;0.00;0.00;;;;;;;28.17;30.64;98903.25;5011417;28;20088;-60
2021/07/23 08:49:50;;;;;;;0.10;0.10;;;;;;;28.09;30.91;98903.53;5012815;28;20077;-58
2021/07/23 08:52:50;;;;;;;0.00;0.00;;;;;;;28.04;31.32;98911.41;5012752;28;20054;-59
2021/07/23 08:55:36;;;;;;;0.00;0.00;;;;;;;27.78;32.01;98896.31;5012647;28;20519;-58
2021/07/23 08:58:22;;;;;;;0.10;0.10;;;;;;;27.65;31.95;98899.91;5012213;28;20049;-58
2021/07/23 09:01:08;;;;;;;0.00;0.00;;;;;;;27.66;32.41;98890.81;5012313;28;20408;-58
2021/07/23 09:03:55;;;;;;;0.00;0.00;;;;;;;27.53;32.70;98888.22;5012575;28;20045;-58
2021/07/23 09:06:41;;;;;;;0.10;0.10;;;;;;;27.48;32.28;98889.94;5011512;28;20046;-60
2021/07/23 09:09:28;;;;;;;0.10;0.10;;;;;;;27.36;33.07;98895.09;5012384;28;20422;-59
2021/07/23 09:12:13;;;;;;;0.00;0.00;;;;;;;27.19;33.16;98894.78;5011892;28;20053;-58
2021/07/23 09:14:59;;;;;;;0.00;0.00;;;;;;;27.14;33.16;98886.56;5010978;28;20104;-59
2021/07/23 09:17:45;;;;;;;0.10;0.10;;;;;;;27.00;32.90;98884.16;5012050;28;20531;-58
2021/07/23 09:20:31;;;;;;;0.10;0.10;;;;;;;27.05;32.42;98885.19;5012228;28;20077;-59
2021/07/23 09:23:25;;;;;;;0.00;0.00;;;;;;;27.11;32.17;98883.50;5011759;28;20132;-59
2021/07/23 09:26:11;;;;;;;0.00;0.00;;;;;;;27.04;32.15;98874.66;5011843;28;20050;-59
2021/07/23 09:28:57;;;;;;;0.10;0.10;;;;;;;27.10;32.25;98873.81;5011817;28;20054;-58
2021/07/23 09:32:06;;;;;;;0.10;0.10;;;;;;;27.35;32.03;98872.84;5015453;28;20140;-59
2021/07/23 09:34:52;;;;;;;0.10;0.10;;;;;;;27.35;31.95;98854.09;5031779;28;20499;-60
2021/07/23 09:37:57;;;;;;;0.00;0.00;;;;;;;27.45;31.77;98855.50;5003302;28;20124;-58
2021/07/23 09:40:44;;;;;;;0.00;0.00;;;;;;;27.52;32.20;98857.06;5031507;28;20057;-58
2021/07/23 09:44:11;;;;;;;0.10;0.10;;;;;;;27.47;31.91;98848.88;5031397;28;20489;-58
2021/07/23 09:46:57;;;;;;;0.10;0.10;;;;;;;27.47;31.92;98842.69;5031163;28;20045;-58
2021/07/23 09:49:44;;;;;;;0.10;0.10;;;;;;;27.41;31.96;98849.72;5016552;28;20060;-58
2021/07/23 09:52:32;;;;;;;0.00;0.00;;;;;;;27.67;31.89;98846.03;5031191;28;20046;-58
2021/07/23 09:55:17;;;;;;;0.00;0.00;;;;;;;27.46;31.79;98825.78;5031107;28;20053;-58
2021/07/23 09:58:05;;;;;;;0.10;0.10;;;;;;;27.72;31.98;98841.66;5016094;28;20077;-58
2021/07/23 10:00:53;;;;;;;0.10;0.10;;;;;;;27.74;31.43;98834.22;5031167;28;20046;-58
2021/07/23 10:03:41;;;;;;;0.10;0.10;;;;;;;28.17;30.75;98828.91;5031029;28;20060;-57
2021/07/23 10:06:35;;;;;;;0.10;0.10;;;;;;;28.38;30.73;98806.16;5016231;28;20152;-58
2021/07/23 10:09:23;;;;;;;0.10;0.10;;;;;;;28.02;30.03;98776.56;5030544;28;20049;-57
2021/07/23 10:12:10;;;;;;;0.40;0.40;;;;;;;27.80;29.48;98801.16;5030671;28;20081;-59
2021/07/23 10:14:56;;;;;;;0.08;0.08;;;;;;;27.91;29.47;98807.66;5016368;28;20053;-58
2021/07/23 10:17:41;;;;;;;0.00;0.00;;;;;;;27.90;29.77;98795.28;5001515;28;20072;-59
2021/07/23 10:20:28;;;;;;;0.10;0.10;;;;;;;27.67;30.22;98795.91;5030413;28;20041;-58
2021/07/23 10:23:19;;;;;;;0.10;0.10;;;;;;;27.38;29.88;98799.22;5030453;28;20217;-58
2021/07/23 10:26:05;;;;;;;0.10;0.10;;;;;;;27.60;29.53;98811.22;5030407;28;20435;-58
2021/07/23 10:28:54;;;;;;;0.10;0.10;;;;;;;27.77;29.07;98796.22;5015664;28;20053;-58
2021/07/23 10:31:40;;;;;;;0.00;0.00;;;;;;;28.00;27.91;98789.41;5030312;28;20085;-57
2021/07/23 10:34:30;;;;;;;0.00;0.00;;;;;;;28.10;27.71;98800.50;5030261;28;20140;-57
2021/07/23 10:37:32;;;;;;;0.10;0.10;;;;;;;28.20;27.78;98800.81;5030088;28;20128;-57
2021/07/23 10:40:40;;;;;;;0.10;0.10;;;;;;;28.24;28.00;98812.75;5030241;28;20560;-58
2021/07/23 10:43:34;;;;;;;0.10;0.10;;;;;;;28.19;27.71;98785.72;5015264;28;20092;-57
2021/07/23 10:46:42;;;;;;;0.10;0.10;;;;;;;28.22;27.72;98801.38;5030203;28;20426;-57
2021/07/23 10:49:30;;;;;;;0.00;0.00;;;;;;;28.31;27.61;98791.97;5015012;28;20053;-58
2021/07/23 10:52:27;;;;;;;0.00;0.00;;;;;;;28.30;27.42;98791.19;5029895;28;20053;-57
2021/07/23 10:55:20;;;;;;;0.20;0.20;;;;;;;28.41;26.88;98797.66;5029921;28;20139;-57
2021/07/23 10:58:09;;;;;;;0.00;0.00;;;;;;;28.32;26.75;98802.50;5029684;28;20084;-59
2021/07/23 11:00:58;;;;;;;0.10;0.10;;;;;;;28.19;26.51;98809.88;5029809;28;20419;-60
2021/07/23 11:03:48;;;;;;;0.00;0.00;;;;;;;28.13;25.63;98787.44;5015335;28;20049;-59
2021/07/23 11:06:35;;;;;;;0.10;0.10;;;;;;;28.16;25.38;98797.72;5030111;28;20502;-59
2021/07/23 11:09:20;;;;;;;0.00;0.00;;;;;;;28.18;26.06;98832.41;5014778;28;20052;-59
2021/07/23 11:12:30;;;;;;;0.10;0.10;;;;;;;27.65;28.47;98867.72;5014731;28;20052;-58
2021/07/23 11:15:18;;;;;;;0.75;0.75;;;;;;;26.84;31.68;98872.91;5029456;28;20429;-56
2021/07/23 11:18:04;;;;;;;6.60;1.65;;;;;;;26.14;34.06;98889.69;5029489;28;20053;-59
2021/07/23 11:20:50;;;;;;;0.45;0.45;;;;;;;25.67;35.19;98872.00;5029388;28;20058;-56
2021/07/23 11:23:36;;;;;;;0.10;0.10;;;;;;;25.59;35.66;98906.94;5000840;28;20050;-57
2021/07/23 11:26:24;;;;;;;0.00;0.00;;;;;;;25.37;36.30;98902.75;5029205;28;20088;-57
2021/07/23 11:29:10;;;;;;;0.20;0.20;;;;;;;24.91;37.11;98904.44;5028646;28;20140;-56
2021/07/23 11:32:09;;;;;;;0.10;0.10;;;;;;;24.62;37.90;98911.66;5029537;28;20427;-56
2021/07/23 11:35:05;;;;;;;0.00;0.00;;;;;;;24.80;37.86;98905.81;5029692;28;20111;-58
2021/07/23 11:37:51;;;;;;;0.10;0.10;;;;;;;24.67;38.30;98913.75;5014587;28;20046;-57
2021/07/23 11:40:37;;;;;;;0.10;0.10;;;;;;;24.47;38.99;98920.81;5029511;28;20037;-58
2021/07/23 11:43:23;;;;;;;0.10;0.10;;;;;;;24.65;38.28;98908.59;5029303;28;20045;-58
2021/07/23 11:46:12;;;;;;;0.10;0.10;;;;;;;25.03;37.81;98917.00;5029169;28;20045;-57
2021/07/23 11:49:01;;;;;;;0.10;0.10;;;;;;;25.30;37.19;98915.28;5029436;28;20056;-57
2021/07/23 11:51:48;;;;;;;0.10;0.10;;;;;;;25.44;37.17;98916.97;5029429;28;20049;-56
2021/07/23 11:54:34;;;;;;;0.10;0.10;;;;;;;25.48;37.16;98883.47;5029547;28;20045;-57
2021/07/23 11:57:20;;;;;;;0.10;0.10;;;;;;;25.74;36.27;98904.91;5029111;28;20050;-56
2021/07/23 12:00:29;;;;;;;0.10;0.10;;;;;;;26.07;35.96;98896.06;5014434;28;20049;-56
2021/07/23 12:03:25;;;;;;;0.20;0.20;;;;;;;26.11;35.71;98913.38;5014394;28;20441;-54
2021/07/23 12:06:11;;;;;;;0.10;0.10;;;;;;;26.27;35.47;98904.94;5029050;28;20054;-57
2021/07/23 12:08:57;;;;;;;0.10;0.10;;;;;;;26.55;34.70;98897.47;5029353;28;20470;-58
2021/07/23 12:11:43;;;;;;;0.10;0.10;;;;;;;26.81;34.48;98912.69;5014656;28;20458;-55
2021/07/23 12:14:29;;;;;;;0.10;0.10;;;;;;;26.91;33.92;98900.47;5000814;28;20045;-56